This is the latest recevied weather packets stored in our database for station/object VK3ABC-13. If no packets are shown the sender has not sent any weather packets the latest 10 day(s).
| Time | Temp. | Humidity | Pressure | Rain* | Wind** | Luminosity | Snow |
|---|---|---|---|---|---|---|---|
| 1777454712 | 17.78° C | 79% | 1024.4 hPa | 0 mm | - | 0 W/m² | - |
| 1777452013 | 17.78° C | 76% | 1024.3 hPa | 0 mm | - | 0 W/m² | - |
| 1777450213 | 18.89° C | 72% | 1024.1 hPa | 0 mm | - | 0 W/m² | - |
| 1777448712 | 19.44° C | 71% | 1024 hPa | 0 mm | - | 0 W/m² | - |
| 1777448112 | 20° C | 70% | 1023.9 hPa | 0 mm | - | 0 W/m² | - |
| 1777447213 | 20.56° C | 69% | 1023.9 hPa | 0 mm | - | 5 W/m² | - |
| 1777446014 | 21.11° C | 68% | 1023.8 hPa | 0 mm | - | 16 W/m² | - |
| 1777444813 | 21.67° C | 66% | 1023.7 hPa | 0 mm | - | 26 W/m² | - |
| 1777444213 | 21.67° C | 65% | 1023.8 hPa | 0 mm | - | 28 W/m² | - |
| 1777441512 | 22.78° C | 60% | 1023.8 hPa | 0 mm | - | 229 W/m² | - |
| 1777440912 | 23.33° C | 59% | 1023.8 hPa | 0 mm | - | 255 W/m² | - |
| 1777440613 | 23.33° C | 58% | 1023.8 hPa | 0 mm | - | 269 W/m² | - |
| 1777439712 | 23.33° C | 58% | 1023.8 hPa | 0 mm | - | 315 W/m² | - |
| 1777436413 | 22.78° C | 59% | 1024 hPa | 0 mm | - | 218 W/m² | - |
| 1777431313 | 22.22° C | 63% | 1025 hPa | 0 mm | - | 483 W/m² | - |
| 1777430413 | 21.67° C | 64% | 1025.2 hPa | 0 mm | - | 520 W/m² | - |
| 1777425612 | 20° C | 70% | 1026.2 hPa | 0 mm | - | 492 W/m² | - |
| 1777425313 | 20° C | 70% | 1026.2 hPa | 0 mm | - | 436 W/m² | - |
| 1777423213 | 19.44° C | 72% | 1026.3 hPa | 0 mm | - | 399 W/m² | - |
| 1777422912 | 19.44° C | 73% | 1026.4 hPa | 0 mm | - | 424 W/m² | - |
| 1777419612 | 16.67° C | 87% | 1026.6 hPa | 0 mm | - | 338 W/m² | - |
| 1777417214 | 15.56° C | 93% | 1026.7 hPa | 0 mm | - | 204 W/m² | - |
| 1777416013 | 13.89° C | 93% | 1026.6 hPa | 0 mm | - | 237 W/m² | - |
| 1777415112 | 12.22° C | 92% | 1026.6 hPa | 0 mm | - | 139 W/m² | - |
| 1777413614 | 10.56° C | 91% | 1026.1 hPa | 0 mm | - | 98 W/m² | - |
* Rain latest hour (hover to see other rain measurements)
** Current wind speed in m/s (hover to see current wind gust speed)